Manhattan Beach, California
Current Conditions -  °F | °C
As of 12:53 PM on Saturday 25 Oct 2014 (Local Time) from KLAX Reporting Station
Broken Clouds Broken Clouds  
Wind Chill: 74°   Ceiling: 10000
Heat Index: 74°   Visibility: 10mi
Dew Point: 64°   Wind: 13mph
Humidity: 70%   Direction: 260°W
Pressure: 30.05"   Gusts: NA
Location:  33.89°N, 118.41°W
Report Text: KLAX 251953Z COR 26011KT 10SM FEW080 BKN100 BKN180 23/18 A3005 RMK AO2 SLP174 T02330175 $
Loading
Personal Weather Stations






























Interactive Weather Map
Tropical Storm Tracking
New forecast layout! Learn more

10-Day Weather Forecast

Advertisements
Track Severe Weather on mobile